Time;durP1;ratioP1;P1;durP2;ratioP2;P2;SDS_P1;SDS_P2;PMS_P1;PMS_P2;Temp;Humidity;BMP_temperature;BMP_pressure;BME280_temperature;BME280_humidity;BME280_pressure;Samples;Min_cycle;Max_cycle;Signal;HPM_P1;HPM_P2
2022/01/25 00:28:04;;;;;;;6.82;3.30;;;20.60;66.90;;;;;;7841015;28;20197;-52
2022/01/25 00:31:49;;;;;;;4.30;3.10;;;20.60;66.90;;;;;;7841127;28;20173;-53
2022/01/25 00:35:35;;;;;;;4.93;3.15;;;20.60;67.00;;;;;;7840967;28;20205;-51
2022/01/25 00:39:20;;;;;;;5.82;3.33;;;20.50;66.90;;;;;;7840579;28;20197;-50
2022/01/25 00:43:06;;;;;;;4.93;3.40;;;20.50;66.90;;;;;;7840716;28;20325;-53
2022/01/25 00:46:51;;;;;;;5.03;3.10;;;20.50;67.00;;;;;;7840482;28;20571;-52
2022/01/25 00:50:41;;;;;;;4.68;3.28;;;20.50;67.00;;;;;;7840637;28;20198;-53
2022/01/25 00:54:32;;;;;;;5.13;3.35;;;20.50;67.00;;;;;;7840511;28;20217;-53
2022/01/25 00:58:18;;;;;;;5.22;2.90;;;20.50;67.10;;;;;;7840017;28;20277;-50
2022/01/25 01:02:07;;;;;;;5.95;3.40;;;20.50;67.00;;;;;;7840137;28;20178;-53
2022/01/25 01:05:53;;;;;;;3.95;3.42;;;20.50;67.00;;;;;;7840157;28;20217;-51
2022/01/25 01:09:40;;;;;;;3.65;3.33;;;20.50;67.10;;;;;;7839481;28;20187;-50
2022/01/25 01:13:51;;;;;;;5.07;3.08;;;20.40;66.90;;;;;;7839902;28;20205;-54
2022/01/25 01:37:43;;;;;;;3.60;2.90;;;20.40;67.00;;;;;;7839186;28;20651;-51
2022/01/25 01:41:52;;;;;;;3.22;2.88;;;20.40;66.90;;;;;;7838961;28;20182;-50
2022/01/25 01:45:55;;;;;;;3.28;2.97;;;20.40;66.80;;;;;;7838814;28;20190;-51
2022/01/25 01:49:43;;;;;;;4.70;3.47;;;20.40;66.90;;;;;;7838561;28;20190;-51
2022/01/25 01:53:30;;;;;;;4.57;3.00;;;20.30;66.80;;;;;;7838466;28;20548;-50
2022/01/25 01:57:15;;;;;;;4.28;2.35;;;20.40;66.80;;;;;;7838766;28;20181;-50
2022/01/25 02:01:05;;;;;;;3.33;2.92;;;20.30;66.80;;;;;;7838255;28;20259;-51
2022/01/25 02:04:50;;;;;;;3.67;2.83;;;20.30;66.70;;;;;;7838991;28;20223;-52
2022/01/25 02:08:36;;;;;;;8.32;3.38;;;20.30;66.90;;;;;;7838091;28;20205;-51
2022/01/25 02:12:21;;;;;;;3.33;2.88;;;20.40;66.80;;;;;;7838232;28;20205;-52
2022/01/25 02:16:14;;;;;;;3.70;3.00;;;20.30;66.70;;;;;;7838221;28;20181;-52
2022/01/25 02:24:22;;;;;;;3.75;2.83;;;20.30;66.90;;;;;;7838173;28;20260;-50
2022/01/25 02:28:07;;;;;;;3.10;2.63;;;20.30;66.80;;;;;;7837685;28;20205;-53
2022/01/25 02:31:54;;;;;;;4.72;2.85;;;20.30;66.80;;;;;;7838624;28;20188;-52
2022/01/25 02:35:40;;;;;;;4.72;2.70;;;20.30;67.80;;;;;;7841170;28;20201;-52
2022/01/25 02:39:27;;;;;;;2.90;2.60;;;20.30;66.80;;;;;;7844251;28;20204;-53
2022/01/25 02:43:16;;;;;;;2.85;2.58;;;20.30;66.80;;;;;;7844427;28;20185;-51
2022/01/25 02:50:49;;;;;;;3.08;2.78;;;20.30;66.90;;;;;;7844117;28;20255;-56
2022/01/25 02:54:35;;;;;;;3.20;2.60;;;20.30;67.30;;;;;;7843856;28;20239;-51
2022/01/25 02:58:21;;;;;;;5.15;3.03;;;20.20;66.80;;;;;;7843409;28;20632;-52
2022/01/25 03:02:07;;;;;;;4.13;2.83;;;20.20;66.80;;;;;;7843771;28;20193;-51
2022/01/25 03:05:52;;;;;;;3.83;2.90;;;20.20;66.80;;;;;;7843573;28;20201;-51
2022/01/25 03:09:40;;;;;;;3.50;3.00;;;20.20;66.80;;;;;;7843166;28;20182;-56
2022/01/25 03:13:35;;;;;;;3.58;2.90;;;20.20;66.90;;;;;;7843267;28;20563;-56
2022/01/25 03:17:27;;;;;;;3.10;2.80;;;20.20;66.80;;;;;;7843334;28;20823;-55
2022/01/25 03:25:08;;;;;;;5.45;3.05;;;20.10;66.80;;;;;;7843197;28;20173;-55
2022/01/25 03:28:54;;;;;;;4.53;2.95;;;20.20;66.80;;;;;;7842663;28;20208;-54
2022/01/25 03:32:41;;;;;;;4.97;2.85;;;20.20;66.90;;;;;;7842743;28;20202;-54
2022/01/25 03:36:26;;;;;;;4.03;2.75;;;20.10;66.80;;;;;;7842842;28;20555;-52
2022/01/25 03:40:12;;;;;;;3.67;2.85;;;20.10;66.80;;;;;;7842302;28;20247;-51
2022/01/25 03:43:58;;;;;;;5.47;2.83;;;20.10;66.90;;;;;;7842516;28;20238;-52
2022/01/25 03:48:00;;;;;;;4.75;3.03;;;20.10;66.80;;;;;;7841771;28;20213;-53
2022/01/25 03:51:45;;;;;;;3.13;2.83;;;20.10;67.00;;;;;;7842337;28;20185;-52
2022/01/25 03:55:31;;;;;;;5.00;2.80;;;20.10;66.90;;;;;;7842159;28;20241;-51
2022/01/25 03:59:17;;;;;;;5.97;2.78;;;20.10;67.00;;;;;;7841822;28;20201;-53
2022/01/25 04:03:56;;;;;;;6.82;3.10;;;20.10;66.90;;;;;;7842021;28;20224;-51
2022/01/25 04:07:11;;;;;;;3.45;2.65;;;20.10;66.90;;;;;;7841199;28;20194;-51
2022/01/25 04:10:56;;;;;;;4.78;2.80;;;20.10;67.00;;;;;;7841529;28;20205;-51
2022/01/25 04:14:41;;;;;;;4.43;2.67;;;20.10;67.00;;;;;;7841779;28;20302;-51
2022/01/25 04:18:34;;;;;;;2.83;2.58;;;20.10;67.00;;;;;;7841577;28;20280;-50
2022/01/25 04:26:24;;;;;;;3.80;2.50;;;20.10;67.10;;;;;;7841504;28;20169;-50
2022/01/25 04:30:10;;;;;;;2.67;2.40;;;20.10;67.10;;;;;;7841073;28;20205;-50
2022/01/25 04:34:10;;;;;;;5.47;3.20;;;20.10;67.10;;;;;;7841078;28;20216;-50
2022/01/25 04:50:20;;;;;;;2.83;2.53;;;20.00;67.00;;;;;;7840360;28;20711;-53
2022/01/25 04:54:36;;;;;;;3.17;2.60;;;20.10;67.10;;;;;;7840420;28;20607;-50
2022/01/25 04:58:20;;;;;;;5.13;3.17;;;20.00;67.00;;;;;;7838967;28;20206;-51
2022/01/25 05:02:15;;;;;;;2.80;2.50;;;20.00;67.00;;;;;;7840215;28;20227;-51
2022/01/25 05:06:10;;;;;;;3.17;2.88;;;20.00;67.00;;;;;;7840373;28;20260;-55
2022/01/25 05:09:58;;;;;;;2.90;2.38;;;20.10;67.10;;;;;;7837182;28;20209;-53
2022/01/25 05:13:50;;;;;;;3.58;2.33;;;20.00;67.00;;;;;;7838960;28;20573;-55
2022/01/25 05:17:43;;;;;;;3.22;2.60;;;20.00;66.90;;;;;;7838453;28;20185;-53
2022/01/25 05:25:33;;;;;;;6.10;2.33;;;20.00;67.10;;;;;;7838683;28;20185;-53
2022/01/25 05:29:19;;;;;;;3.72;2.88;;;20.10;67.10;;;;;;7838014;28;20251;-54
2022/01/25 05:33:04;;;;;;;3.80;2.33;;;20.10;67.10;;;;;;7838448;28;20598;-54
2022/01/25 05:36:50;;;;;;;31.90;3.42;;;20.10;67.10;;;;;;7832809;28;20194;-55
2022/01/25 05:40:43;;;;;;;21.35;3.13;;;20.10;67.70;;;;;;7837436;28;20279;-52
2022/01/25 05:44:53;;;;;;;15.77;2.70;;;20.10;67.80;;;;;;7838282;28;20614;-49
2022/01/25 05:48:39;;;;;;;9.73;3.05;;;20.10;67.70;;;;;;7837461;28;20194;-51
2022/01/25 05:52:26;;;;;;;10.00;3.13;;;20.10;67.70;;;;;;7837933;28;20235;-50
2022/01/25 05:56:11;;;;;;;12.15;2.50;;;20.10;67.60;;;;;;7813472;28;20186;-51
2022/01/25 05:59:57;;;;;;;11.13;3.88;;;20.10;67.70;;;;;;7806380;28;20240;-50
2022/01/25 06:03:44;;;;;;;9.88;2.67;;;20.10;67.70;;;;;;7806837;28;20179;-50
2022/01/25 06:07:30;;;;;;;16.55;2.70;;;20.10;67.70;;;;;;7806548;28;20551;-51
2022/01/25 06:11:15;;;;;;;16.40;3.17;;;20.20;67.80;;;;;;7832457;28;20236;-50
2022/01/25 06:15:01;;;;;;;24.30;3.22;;;20.20;68.80;;;;;;7837560;28;20292;-50
2022/01/25 06:18:46;;;;;;;75.65;4.97;;;20.20;68.30;;;;;;7837132;28;20222;-50
2022/01/25 06:22:32;;;;;;;60.10;6.32;;;20.20;67.90;;;;;;7837319;28;20591;-51
2022/01/25 06:26:18;;;;;;;38.83;4.43;;;20.20;67.50;;;;;;7810689;28;20182;-49
2022/01/25 06:30:04;;;;;;;35.88;4.43;;;20.20;67.40;;;;;;7805735;28;20206;-51
2022/01/25 06:33:50;;;;;;;36.60;4.25;;;20.20;67.10;;;;;;7806173;28;20210;-49
2022/01/25 06:37:36;;;;;;;43.58;4.88;;;20.20;67.10;;;;;;7805616;28;20296;-51
2022/01/25 06:41:22;;;;;;;26.38;3.38;;;20.20;67.60;;;;;;7832947;28;20192;-51
2022/01/25 06:45:17;;;;;;;43.95;3.70;;;20.20;67.60;;;;;;7836959;28;20205;-54
2022/01/25 06:49:03;;;;;;;31.20;3.80;;;20.20;67.50;;;;;;7836376;28;20189;-51
2022/01/25 06:52:48;;;;;;;25.48;3.67;;;20.20;67.40;;;;;;7836509;28;20301;-50
2022/01/25 06:56:34;;;;;;;28.67;3.33;;;20.20;67.50;;;;;;7807717;28;20183;-50
2022/01/25 07:00:22;;;;;;;40.30;3.58;;;20.20;67.40;;;;;;7805515;28;20225;-53
2022/01/25 07:04:08;;;;;;;9.55;3.30;;;20.20;67.70;;;;;;7807047;28;20191;-53
2022/01/25 07:07:54;;;;;;;21.42;2.85;;;20.20;67.80;;;;;;7807471;28;20211;-51
2022/01/25 07:11:39;;;;;;;21.23;2.55;;;20.20;67.60;;;;;;7805319;28;20194;-51
2022/01/25 07:15:25;;;;;;;22.50;3.67;;;20.30;67.40;;;;;;7805273;28;20308;-52
2022/01/25 07:19:10;;;;;;;13.90;3.60;;;20.30;67.50;;;;;;7804994;28;20583;-49
2022/01/25 07:22:56;;;;;;;10.35;2.90;;;20.30;67.40;;;;;;7810349;28;20182;-51
2022/01/25 07:26:41;;;;;;;14.25;2.97;;;20.30;67.40;;;;;;7819280;28;20859;-49
2022/01/25 07:30:27;;;;;;;21.52;3.67;;;20.40;67.50;;;;;;7823197;28;20233;-51
2022/01/25 07:34:13;;;;;;;11.95;4.05;;;20.40;67.50;;;;;;7811346;28;20775;-54
2022/01/25 07:37:59;;;;;;;12.68;3.03;;;20.40;67.40;;;;;;7810979;28;20652;-52
2022/01/25 07:41:45;;;;;;;16.42;3.38;;;20.40;67.60;;;;;;7819256;28;20182;-52
2022/01/25 07:45:35;;;;;;;8.40;2.80;;;20.50;67.80;;;;;;7833344;28;20196;-52
2022/01/25 07:49:21;;;;;;;10.23;3.20;;;20.50;67.60;;;;;;7831095;28;20256;-50
2022/01/25 07:53:06;;;;;;;8.95;2.92;;;20.50;67.70;;;;;;7810137;28;20198;-49
2022/01/25 07:56:53;;;;;;;15.85;3.55;;;20.50;67.60;;;;;;7810487;28;20637;-50
2022/01/25 08:00:39;;;;;;;9.15;2.78;;;20.50;67.60;;;;;;7809617;28;20206;-49
2022/01/25 08:04:25;;;;;;;9.02;3.22;;;20.50;67.70;;;;;;7810161;28;20190;-51
2022/01/25 08:08:12;;;;;;;10.70;3.58;;;20.50;67.70;;;;;;7811925;28;20692;-50
2022/01/25 08:11:57;;;;;;;8.02;3.30;;;20.60;67.60;;;;;;7840769;28;20639;-50
2022/01/25 08:15:43;;;;;;;13.73;3.13;;;20.50;67.50;;;;;;7838499;28;20619;-50
2022/01/25 08:19:28;;;;;;;8.70;3.08;;;20.50;67.70;;;;;;7839916;28;20194;-52
2022/01/25 08:23:14;;;;;;;8.27;3.35;;;20.50;67.70;;;;;;7832576;28;20187;-51
2022/01/25 08:27:00;;;;;;;13.10;3.13;;;20.50;67.60;;;;;;7809534;28;20178;-49
2022/01/25 08:30:46;;;;;;;14.07;4.30;;;20.60;68.00;;;;;;7808747;28;20214;-49
2022/01/25 08:34:31;;;;;;;20.58;5.60;;;20.60;67.50;;;;;;7816678;28;20300;-50
2022/01/25 08:38:17;;;;;;;8.15;3.30;;;20.60;67.40;;;;;;7813294;28;20599;-50
2022/01/25 08:42:03;;;;;;;9.35;3.65;;;20.50;67.40;;;;;;7805234;28;20175;-51
2022/01/25 08:45:49;;;;;;;14.10;4.20;;;20.50;67.30;;;;;;7807537;28;20277;-51
2022/01/25 08:49:35;;;;;;;17.98;4.03;;;20.60;67.40;;;;;;7808370;28;20673;-49
2022/01/25 08:53:21;;;;;;;24.08;4.30;;;20.50;67.60;;;;;;7813445;28;20206;-50
2022/01/25 08:57:06;;;;;;;14.13;4.40;;;20.60;67.70;;;;;;7839324;28;20177;-50
2022/01/25 09:00:52;;;;;;;11.85;4.15;;;20.70;68.20;;;;;;7838940;28;20189;-50
2022/01/25 09:04:38;;;;;;;19.73;5.03;;;20.70;68.70;;;;;;7836332;28;20186;-50
2022/01/25 09:08:27;;;;;;;8.07;4.45;;;20.70;67.70;;;;;;7813239;28;20233;-50
2022/01/25 09:12:13;;;;;;;7.88;4.05;;;20.80;68.10;;;;;;7819157;28;20187;-51
2022/01/25 09:16:00;;;;;;;23.52;4.47;;;20.80;68.50;;;;;;7808414;28;20206;-49
2022/01/25 09:19:46;;;;;;;14.63;3.55;;;20.80;69.20;;;;;;7807440;28;20248;-53
2022/01/25 09:23:32;;;;;;;9.43;2.88;;;20.90;69.50;;;;;;7814372;28;20186;-50
2022/01/25 09:27:17;;;;;;;13.45;3.38;;;20.90;69.50;;;;;;7838789;28;20178;-50
2022/01/25 09:31:03;;;;;;;14.25;3.60;;;21.00;69.50;;;;;;7838223;28;20736;-52
2022/01/25 09:34:49;;;;;;;15.02;6.32;;;21.10;69.40;;;;;;7834436;28;20245;-52
2022/01/25 09:38:35;;;;;;;8.80;4.18;;;21.10;66.30;;;;;;7826755;28;20190;-52
2022/01/25 09:42:21;;;;;;;16.38;4.13;;;21.00;67.40;;;;;;7804631;28;20267;-52
2022/01/25 09:46:06;;;;;;;13.57;4.05;;;21.00;68.10;;;;;;7807316;28;20280;-55
2022/01/25 09:49:52;;;;;;;12.63;3.35;;;21.20;68.50;;;;;;7821896;28;20201;-50
2022/01/25 09:53:39;;;;;;;17.45;3.80;;;21.30;68.80;;;;;;7829833;28;20830;-54
2022/01/25 09:57:25;;;;;;;20.80;3.53;;;21.30;68.40;;;;;;7807005;28;20167;-51
2022/01/25 10:01:11;;;;;;;25.02;4.28;;;21.30;68.20;;;;;;7815424;28;20193;-50
2022/01/25 10:04:56;;;;;;;19.38;4.10;;;21.20;67.10;;;;;;7806862;28;20190;-50
2022/01/25 10:08:43;;;;;;;18.27;3.92;;;21.20;68.00;;;;;;7814715;28;20220;-51
2022/01/25 10:12:28;;;;;;;20.65;3.35;;;21.20;68.10;;;;;;7809268;28;20279;-52
2022/01/25 10:16:19;;;;;;;21.02;4.60;;;21.20;68.20;;;;;;7806651;28;20179;-52
2022/01/25 10:20:05;;;;;;;12.93;4.15;;;21.30;68.20;;;;;;7803018;28;20198;-52
2022/01/25 10:24:12;;;;;;;12.07;4.28;;;21.20;67.40;;;;;;7816694;28;20193;-53
2022/01/25 10:28:02;;;;;;;10.80;4.22;;;21.20;68.00;;;;;;7823115;28;20578;-53
2022/01/25 10:31:52;;;;;;;11.75;3.72;;;21.30;68.00;;;;;;7836983;28;20205;-55
2022/01/25 10:35:38;;;;;;;13.50;3.60;;;21.50;67.90;;;;;;7836844;28;20708;-50
2022/01/25 10:39:31;;;;;;;14.63;3.90;;;21.70;67.90;;;;;;7821281;28;20195;-48
2022/01/25 10:43:20;;;;;;;12.88;3.72;;;21.80;68.00;;;;;;7806431;28;20193;-49
2022/01/25 10:47:06;;;;;;;21.98;3.50;;;22.00;67.90;;;;;;7806313;28;20641;-50
2022/01/25 10:51:19;;;;;;;11.45;3.47;;;22.10;67.90;;;;;;7805633;28;20218;-50
2022/01/25 10:55:05;;;;;;;15.90;4.57;;;22.20;68.00;;;;;;7827535;28;20205;-49
2022/01/25 10:58:51;;;;;;;11.23;3.15;;;22.40;68.00;;;;;;7831685;28;20312;-52
2022/01/25 11:02:54;;;;;;;13.63;3.40;;;22.50;67.90;;;;;;7814537;28;20178;-50
2022/01/25 11:06:41;;;;;;;9.30;3.55;;;22.60;67.80;;;;;;7821003;28;20236;-50
2022/01/25 11:10:26;;;;;;;9.10;3.88;;;22.70;66.70;;;;;;7817744;28;20199;-50
2022/01/25 11:18:18;;;;;;;8.90;3.13;;;22.80;67.20;;;;;;7812200;28;20206;-52
2022/01/25 11:22:04;;;;;;;10.98;3.22;;;22.90;67.20;;;;;;7811046;28;20197;-51
2022/01/25 11:25:51;;;;;;;11.25;3.10;;;23.10;67.20;;;;;;7839177;28;20640;-53
2022/01/25 11:29:41;;;;;;;7.70;2.90;;;23.10;67.20;;;;;;7824713;28;20215;-51
2022/01/25 11:33:28;;;;;;;8.75;3.15;;;23.20;67.40;;;;;;7824870;28;20198;-51
2022/01/25 11:37:14;;;;;;;11.05;2.85;;;23.30;67.50;;;;;;7841981;28;20209;-50
2022/01/25 11:41:07;;;;;;;13.02;2.83;;;23.30;68.90;;;;;;7811348;28;20705;-50
2022/01/25 11:44:58;;;;;;;10.93;3.28;;;23.30;68.10;;;;;;7810521;28;20187;-51
2022/01/25 11:48:44;;;;;;;11.88;2.55;;;23.30;68.40;;;;;;7810165;28;20206;-52
2022/01/25 11:52:30;;;;;;;11.82;2.80;;;23.20;68.20;;;;;;7810479;28;20182;-52
2022/01/25 11:56:17;;;;;;;11.75;3.00;;;23.20;68.40;;;;;;7810809;28;20209;-52
2022/01/25 12:00:04;;;;;;;12.82;3.20;;;23.30;68.70;;;;;;7835674;28;20674;-51
2022/01/25 12:03:56;;;;;;;18.17;2.95;;;23.30;68.80;;;;;;7840863;28;20186;-51
2022/01/25 12:08:04;;;;;;;7.55;2.45;;;23.40;68.90;;;;;;7837591;28;20243;-52
2022/01/25 12:12:00;;;;;;;10.38;2.95;;;23.30;68.90;;;;;;7810074;28;20182;-52
2022/01/25 12:16:05;;;;;;;19.30;2.63;;;23.40;68.80;;;;;;7810263;28;20218;-51
2022/01/25 12:19:58;;;;;;;8.80;3.50;;;23.40;68.80;;;;;;7808863;28;20201;-49
2022/01/25 12:23:46;;;;;;;9.02;2.95;;;23.40;66.20;;;;;;7808344;28;20660;-50
2022/01/25 12:27:41;;;;;;;6.25;3.03;;;23.20;67.80;;;;;;7829826;28;20269;-50
2022/01/25 12:31:43;;;;;;;11.30;2.40;;;23.10;67.80;;;;;;7840075;28;20280;-50
2022/01/25 12:35:45;;;;;;;11.95;2.65;;;23.10;67.80;;;;;;7840118;28;20213;-52
2022/01/25 12:39:34;;;;;;;13.38;2.30;;;23.20;68.10;;;;;;7820904;28;20700;-52
2022/01/25 12:43:24;;;;;;;12.50;2.47;;;23.20;68.30;;;;;;7809013;28;20182;-53
2022/01/25 12:47:09;;;;;;;13.00;2.55;;;23.20;68.40;;;;;;7808867;28;20664;-52
2022/01/25 12:50:59;;;;;;;11.65;2.65;;;23.20;68.40;;;;;;7808249;28;20645;-51
2022/01/25 12:54:45;;;;;;;11.52;2.00;;;23.20;68.40;;;;;;7823512;28;20264;-50
2022/01/25 12:58:32;;;;;;;6.18;2.05;;;23.20;68.50;;;;;;7807434;28;20207;-50
2022/01/25 13:02:21;;;;;;;5.45;1.98;;;23.20;68.40;;;;;;7808355;28;20182;-50
2022/01/25 13:06:10;;;;;;;7.68;2.00;;;23.20;68.40;;;;;;7808127;28;20186;-50
2022/01/25 13:09:56;;;;;;;3.42;1.80;;;23.10;68.40;;;;;;7814581;28;20210;-49
2022/01/25 13:13:58;;;;;;;6.68;2.13;;;23.10;68.40;;;;;;7807880;28;20617;-51
2022/01/25 13:17:44;;;;;;;5.85;2.00;;;23.10;68.40;;;;;;7823424;28;20182;-58
2022/01/25 13:21:38;;;;;;;6.13;1.98;;;23.00;68.60;;;;;;7807144;28;20244;-51
2022/01/25 13:33:28;;;;;;;3.78;1.90;;;23.00;69.10;;;;;;7829873;28;20260;-50
2022/01/25 13:37:21;;;;;;;4.47;2.60;;;22.90;68.90;;;;;;7813807;28;20198;-50
2022/01/25 13:49:21;;;;;;;6.85;2.22;;;22.90;69.20;;;;;;7806658;28;20199;-50
2022/01/25 13:53:08;;;;;;;12.88;2.30;;;22.80;69.40;;;;;;7807394;28;20680;-51
2022/01/25 13:56:55;;;;;;;3.63;2.20;;;22.80;69.40;;;;;;7806928;28;20201;-54
2022/01/25 14:00:40;;;;;;;5.88;2.22;;;22.80;69.40;;;;;;7832679;28;20202;-51
2022/01/25 14:04:30;;;;;;;4.20;1.90;;;22.80;69.30;;;;;;7837952;28;20272;-49
2022/01/25 14:08:15;;;;;;;3.08;1.85;;;22.80;69.30;;;;;;7827185;28;20294;-50
2022/01/25 14:24:06;;;;;;;8.60;2.30;;;22.80;69.20;;;;;;7816842;28;20190;-49
2022/01/25 14:27:55;;;;;;;4.53;1.90;;;22.80;69.10;;;;;;7836801;28;20202;-49
2022/01/25 14:31:42;;;;;;;5.93;1.88;;;22.80;69.10;;;;;;7836097;28;20174;-52
2022/01/25 14:35:30;;;;;;;4.00;2.03;;;22.80;68.90;;;;;;7832788;28;20246;-50
2022/01/25 14:39:16;;;;;;;3.65;2.10;;;22.90;68.90;;;;;;7805489;28;20264;-50
2022/01/25 14:43:03;;;;;;;7.53;2.45;;;22.90;69.00;;;;;;7806264;28;20198;-50
2022/01/25 14:46:52;;;;;;;9.25;2.42;;;22.90;68.80;;;;;;7805825;28;20213;-49
2022/01/25 14:50:37;;;;;;;4.20;2.20;;;22.90;68.60;;;;;;7805615;28;20191;-49
2022/01/25 14:54:29;;;;;;;7.30;2.47;;;22.90;68.60;;;;;;7806042;28;20210;-50
2022/01/25 15:02:10;;;;;;;11.02;2.50;;;22.80;68.50;;;;;;7806228;28;20624;-50
2022/01/25 15:05:56;;;;;;;10.93;2.60;;;22.80;68.80;;;;;;7806553;28;20198;-50
2022/01/25 15:09:52;;;;;;;13.18;2.38;;;22.80;68.80;;;;;;7808399;28;20213;-50
2022/01/25 15:13:39;;;;;;;7.40;3.25;;;22.80;69.00;;;;;;7836987;28;20202;-49
2022/01/25 15:17:25;;;;;;;3.58;2.08;;;22.80;69.10;;;;;;7831302;28;20550;-49
2022/01/25 15:21:10;;;;;;;8.82;2.50;;;22.80;69.30;;;;;;7812824;28;20221;-50
2022/01/25 15:24:57;;;;;;;17.08;2.80;;;22.80;69.40;;;;;;7822690;28;20194;-53
2022/01/25 15:28:47;;;;;;;9.98;2.70;;;22.80;69.70;;;;;;7805026;28;20276;-51
2022/01/25 15:32:33;;;;;;;11.75;2.90;;;22.80;69.80;;;;;;7805385;28;20603;-53
2022/01/25 15:36:20;;;;;;;12.18;2.65;;;22.80;70.10;;;;;;7826444;28;20178;-52
2022/01/25 15:40:06;;;;;;;12.52;2.50;;;22.80;70.20;;;;;;7805879;28;20405;-54
2022/01/25 15:43:54;;;;;;;7.07;2.33;;;22.80;70.40;;;;;;7810642;28;20179;-53
2022/01/25 15:47:40;;;;;;;11.02;3.05;;;22.70;70.50;;;;;;7811223;28;20557;-51
2022/01/25 15:51:25;;;;;;;12.85;3.05;;;22.70;70.50;;;;;;7835096;28;20190;-55
2022/01/25 15:55:12;;;;;;;20.23;3.28;;;22.70;70.10;;;;;;7811318;28;20695;-54
2022/01/25 15:58:57;;;;;;;16.20;3.15;;;22.60;70.20;;;;;;7810926;28;20215;-52
2022/01/25 16:02:43;;;;;;;5.90;2.60;;;22.60;70.20;;;;;;7813897;28;20186;-54
2022/01/25 16:06:29;;;;;;;6.90;2.85;;;22.50;70.10;;;;;;7842439;28;20182;-53
2022/01/25 16:10:15;;;;;;;11.50;2.85;;;22.50;70.10;;;;;;7840268;28;20268;-50
2022/01/25 16:14:00;;;;;;;5.47;2.80;;;22.40;70.20;;;;;;7811177;28;20210;-50
2022/01/25 16:17:46;;;;;;;8.50;3.03;;;22.40;70.10;;;;;;7810907;28;20199;-52
2022/01/25 16:21:31;;;;;;;3.97;2.78;;;22.30;70.00;;;;;;7811241;28;20545;-50
2022/01/25 16:25:17;;;;;;;5.47;2.90;;;22.40;70.10;;;;;;7811046;28;20209;-50
2022/01/25 16:29:02;;;;;;;6.65;3.10;;;22.30;70.10;;;;;;7810516;28;20594;-52
2022/01/25 16:32:50;;;;;;;9.45;2.97;;;22.30;70.10;;;;;;7810265;28;20561;-50
2022/01/25 16:36:37;;;;;;;6.47;3.15;;;22.30;70.20;;;;;;7810424;28;20173;-50
2022/01/25 16:40:23;;;;;;;6.50;2.90;;;22.40;70.30;;;;;;7839971;28;20249;-51
2022/01/25 16:44:08;;;;;;;5.30;2.88;;;22.40;70.50;;;;;;7840960;28;20181;-52
2022/01/25 16:47:54;;;;;;;6.05;3.13;;;22.50;70.50;;;;;;7840440;28;20231;-50
2022/01/25 16:51:39;;;;;;;7.47;3.17;;;22.50;70.50;;;;;;7840750;28;20608;-51
2022/01/25 16:55:25;;;;;;;5.30;3.30;;;22.60;70.70;;;;;;7839513;28;20248;-51
2022/01/25 16:59:11;;;;;;;5.43;3.83;;;22.70;70.70;;;;;;7840131;28;20559;-52
2022/01/25 17:02:58;;;;;;;5.15;3.20;;;22.70;70.80;;;;;;7840396;28;20601;-50
2022/01/25 17:06:44;;;;;;;4.13;3.40;;;22.90;70.80;;;;;;7812184;28;20187;-54
2022/01/25 17:10:30;;;;;;;5.43;3.05;;;22.90;70.90;;;;;;7808909;28;20202;-50
2022/01/25 17:14:16;;;;;;;10.57;3.97;;;23.00;71.00;;;;;;7808953;28;20214;-55
2022/01/25 17:18:01;;;;;;;5.60;3.63;;;23.00;70.90;;;;;;7808567;28;20201;-51
2022/01/25 17:21:47;;;;;;;5.32;3.88;;;23.10;71.00;;;;;;7829863;28;20720;-50
2022/01/25 17:25:33;;;;;;;10.38;4.20;;;23.10;70.90;;;;;;7840194;28;20576;-53
2022/01/25 17:29:19;;;;;;;10.07;4.03;;;23.10;70.90;;;;;;7839543;28;20676;-50
2022/01/25 17:33:06;;;;;;;15.35;3.70;;;23.10;70.80;;;;;;7839561;28;20563;-51
2022/01/25 17:36:52;;;;;;;8.57;4.00;;;23.10;70.80;;;;;;7839361;28;20257;-50
2022/01/25 17:40:40;;;;;;;12.02;4.13;;;23.10;70.70;;;;;;7838994;28;20198;-51
2022/01/25 17:44:25;;;;;;;12.13;3.53;;;23.10;70.70;;;;;;7839207;28;20588;-51
2022/01/25 17:48:11;;;;;;;15.18;4.25;;;23.10;70.70;;;;;;7832574;28;20230;-54
2022/01/25 17:51:58;;;;;;;7.35;3.60;;;23.10;70.60;;;;;;7807864;28;20198;-51
2022/01/25 17:55:45;;;;;;;12.15;4.57;;;23.10;70.60;;;;;;7836930;28;20240;-54
2022/01/25 17:59:34;;;;;;;18.63;4.18;;;23.00;70.50;;;;;;7838502;28;20538;-55
2022/01/25 18:03:20;;;;;;;5.75;4.00;;;23.00;70.50;;;;;;7819111;28;20194;-54
2022/01/25 18:07:05;;;;;;;11.95;3.85;;;23.00;70.60;;;;;;7807604;28;20645;-52
2022/01/25 18:10:51;;;;;;;5.78;4.20;;;22.90;70.50;;;;;;7807361;28;20202;-50
2022/01/25 18:14:36;;;;;;;10.50;3.90;;;22.90;70.50;;;;;;7807540;28;20213;-51
2022/01/25 18:18:22;;;;;;;16.02;4.50;;;23.00;70.70;;;;;;7807148;28;20194;-49
2022/01/25 18:22:07;;;;;;;13.50;5.15;;;23.00;70.60;;;;;;7807365;28;20163;-50
2022/01/25 18:25:56;;;;;;;14.27;4.95;;;23.10;70.40;;;;;;7815988;28;20190;-50
2022/01/25 18:29:42;;;;;;;10.90;5.00;;;23.10;70.60;;;;;;7819406;28;20206;-50
2022/01/25 18:33:27;;;;;;;13.75;5.80;;;23.10;70.70;;;;;;7807294;28;20238;-50
2022/01/25 18:37:13;;;;;;;16.38;6.28;;;23.20;70.70;;;;;;7815581;28;20657;-52
2022/01/25 18:40:58;;;;;;;26.35;10.38;;;23.30;70.70;;;;;;7821607;28;20236;-50
2022/01/25 18:44:47;;;;;;;28.65;10.77;;;23.40;70.50;;;;;;7808544;28;20187;-50
2022/01/25 18:48:35;;;;;;;25.73;11.15;;;23.40;70.80;;;;;;7805060;28;20218;-53
2022/01/25 18:52:21;;;;;;;25.17;12.15;;;23.50;70.60;;;;;;7806955;28;20543;-50
2022/01/25 18:56:09;;;;;;;28.17;12.98;;;23.60;70.50;;;;;;7829312;28;20228;-50
2022/01/25 18:59:54;;;;;;;25.15;13.45;;;23.60;70.40;;;;;;7869149;28;20243;-50
2022/01/25 19:03:41;;;;;;;26.00;14.20;;;23.60;70.40;;;;;;7864136;28;20639;-52
2022/01/25 19:07:27;;;;;;;28.92;15.50;;;23.60;69.40;;;;;;7831174;28;20276;-50
2022/01/25 19:11:12;;;;;;;59.25;15.80;;;23.60;70.10;;;;;;7836221;28;20213;-53
2022/01/25 19:14:58;;;;;;;45.30;15.20;;;23.70;70.30;;;;;;7836289;28;20341;-50
2022/01/25 19:18:44;;;;;;;35.38;14.13;;;23.70;70.50;;;;;;7838195;28;20198;-49
2022/01/25 19:22:32;;;;;;;36.85;14.25;;;23.50;68.00;;;;;;7842309;28;20543;-53
2022/01/25 19:26:19;;;;;;;29.30;13.65;;;23.30;69.80;;;;;;7842327;28;20177;-54
2022/01/25 19:30:09;;;;;;;36.65;13.10;;;23.30;69.90;;;;;;7841298;28;20630;-51
2022/01/25 19:33:55;;;;;;;30.23;12.10;;;23.40;70.20;;;;;;7840767;28;20214;-54
2022/01/25 19:37:41;;;;;;;42.33;12.43;;;23.40;70.40;;;;;;7810552;28;20265;-51
2022/01/25 19:41:28;;;;;;;31.63;11.90;;;23.50;70.50;;;;;;7811078;28;20179;-50
2022/01/25 19:45:13;;;;;;;28.30;10.90;;;23.50;70.70;;;;;;7811459;28;20193;-52
2022/01/25 19:49:02;;;;;;;27.67;10.85;;;23.50;70.90;;;;;;7809860;28;20282;-54
2022/01/25 19:52:55;;;;;;;22.17;10.10;;;23.50;71.00;;;;;;7810443;28;20186;-53
2022/01/25 19:56:43;;;;;;;26.83;10.10;;;23.40;71.10;;;;;;7810251;28;20187;-54
2022/01/25 20:00:29;;;;;;;24.98;10.23;;;23.40;71.10;;;;;;7812064;28;20206;-52
2022/01/25 20:04:15;;;;;;;20.88;9.30;;;23.40;71.30;;;;;;7822774;28;20185;-53
2022/01/25 20:08:00;;;;;;;21.08;9.57;;;23.40;71.50;;;;;;7841133;28;20210;-55
2022/01/25 20:11:46;;;;;;;20.80;9.40;;;23.40;71.50;;;;;;7841016;28;20341;-53
2022/01/25 20:15:32;;;;;;;24.38;10.10;;;23.30;71.10;;;;;;7839304;28;20467;-46
2022/01/25 20:19:18;;;;;;;20.80;8.88;;;23.20;71.20;;;;;;7839399;28;20229;-49
2022/01/25 20:27:20;;;;;;;27.67;9.13;;;22.80;72.20;;;;;;7808704;28;20558;-47
2022/01/25 20:31:10;;;;;;;27.13;8.75;;;22.90;71.70;;;;;;7809512;28;20278;-50
2022/01/25 20:34:58;;;;;;;28.83;9.18;;;23.10;71.20;;;;;;7833679;28;20233;-51
2022/01/25 20:38:44;;;;;;;24.50;8.68;;;23.20;71.10;;;;;;7839286;28;20194;-54
2022/01/25 20:42:29;;;;;;;25.42;8.40;;;23.20;71.10;;;;;;7840466;28;20216;-50
2022/01/25 20:46:15;;;;;;;23.30;9.05;;;23.20;70.70;;;;;;7826923;28;20579;-51
2022/01/25 20:50:01;;;;;;;16.25;7.97;;;23.30;70.40;;;;;;7808500;28;20672;-50
2022/01/25 20:53:47;;;;;;;25.33;9.75;;;23.30;70.10;;;;;;7809567;28;20207;-50
2022/01/25 20:57:32;;;;;;;23.80;8.30;;;23.40;70.60;;;;;;7808045;28;20213;-52
2022/01/25 21:01:20;;;;;;;25.67;8.25;;;23.50;71.20;;;;;;7808944;28;20202;-50
2022/01/25 21:09:11;;;;;;;21.95;7.97;;;23.50;71.10;;;;;;7814288;28;20695;-50
2022/01/25 21:12:57;;;;;;;17.88;8.30;;;23.50;70.80;;;;;;7818320;28;20177;-50
2022/01/25 21:16:43;;;;;;;27.58;8.70;;;23.50;71.00;;;;;;7839471;28;20235;-51
2022/01/25 21:20:30;;;;;;;35.05;8.15;;;23.40;71.00;;;;;;7838956;28;20198;-50
2022/01/25 21:24:19;;;;;;;22.52;8.52;;;23.30;71.20;;;;;;7838944;28;20208;-54
2022/01/25 21:28:07;;;;;;;24.98;7.80;;;23.30;71.30;;;;;;7837187;28;20292;-51
2022/01/25 21:31:53;;;;;;;25.25;8.18;;;23.20;71.40;;;;;;7818104;28;20289;-52
2022/01/25 21:35:41;;;;;;;20.52;7.60;;;23.20;71.80;;;;;;7834050;28;20214;-50
2022/01/25 21:39:27;;;;;;;20.65;7.90;;;23.30;71.60;;;;;;7810257;28;20215;-50